Alle Angaben ohne Gewähr!
Bitte informieren Sie sich zusätzlich über offizielle Wetter-Stellen wie z.B. http://www.flug-wetter.at.

L O X Z


LOXZ 240720Z VRB02KT 12KM SCT009ST BKN100AC 16/13 Q1021 NOSIG
LOXZ 240650Z 12003KT 12KM FEW008ST SCT030SC BKN160AC 15/13 Q1020 NOSIG
LOXZ 240620Z 10003KT 12KM FEW008ST SCT030SC BKN160AC 15/13 Q1020 NOSIG
LOXZ 240550Z VRB02KT 15KM FEW010ST SCT020SC BKN180AC 14/12 Q1020 NOSIG

TAF LOXZ 240515Z 2406/2415 VRB03KT 9999 FEW025 SCT060 BKN100
  TEMPO 2406/2415 VRB10KT SHRA FEW010 SCT040TCU BKN050
  PROB40
  TEMPO 2409/2415 VRB15KT 5000 TSRA BKN030CB

L O W K


LOWK 240720Z VRB01KT 9999 FEW012 SCT050 BKN150 17/15 Q1020 NOSIG
LOWK 240650Z VRB02KT 9999 FEW012 SCT050 BKN150 17/14 Q1020 NOSIG
LOWK 240620Z VRB02KT 9999 FEW012 BKN050 16/14 Q1019 NOSIG
LOWK 240550Z VRB02KT 9999 FEW012 BKN045 16/14 Q1019 NOSIG

TAF LOWK 240515Z 2406/2506 VRB02KT 9999 SCT040 SCT100 TX21/2414Z TN14/2504Z
  TEMPO 2406/2506 -SHRA SCT040 FEW045TCU BKN070
  PROB40
  TEMPO 2409/2506 VRB10KT SHRA FEW045CB BKN060
  PROB30
  TEMPO 2411/2420 VRB15G25KT 5000 TSRA

L O W G


LOWG 240720Z VRB02KT 9999 FEW040 SCT050 BKN140 19/15 Q1019 NOSIG
LOWG 240650Z VRB03KT 9999 FEW030 SCT050 BKN140 18/15 Q1019 NOSIG
LOWG 240620Z VRB02KT 9999 FEW030 SCT050 BKN120 18/15 Q1019 NOSIG
LOWG 240550Z VRB01KT 9999 FEW030 SCT050 BKN110 17/15 Q1019 NOSIG

TAF LOWG 240515Z 2406/2506 VRB02KT 9999 FEW040 SCT070 BKN100 TX22/2412Z TN14/2503Z
  TEMPO 2406/2506 VRB10KT -SHRA SCT040 FEW050CB BKN060
  PROB40
  TEMPO 2409/2420 VRB15G25KT 5000 TSRA SCT040CB BKN050
  PROB30
  TEMPO 2500/2506 1200 BCFG SCT002